Time;durP1;ratioP1;P1;durP2;ratioP2;P2;SDS_P1;SDS_P2;PMS_P1;PMS_P2;Temp;Humidity;BMP_temperature;BMP_pressure;BME280_temperature;BME280_humidity;BME280_pressure;Samples;Min_cycle;Max_cycle;Signal;HPM_P1;HPM_P2
2023/12/30 00:00:22;;;;;;;4.93;1.90;;;;;;;;;;6219237;23;20305;-83
2023/12/30 00:03:07;;;;;;;2.80;1.73;;;;;;;;;;6218610;23;19992;-83
2023/12/30 00:05:52;;;;;;;1.95;1.30;;;;;;;;;;6216303;23;20429;-82
2023/12/30 00:08:37;;;;;;;4.65;1.73;;;;;;;;;;6218500;23;20011;-82
2023/12/30 00:11:22;;;;;;;6.38;2.03;;;;;;;;;;6218428;23;20054;-83
2023/12/30 00:14:08;;;;;;;2.80;1.73;;;;;;;;;;6216534;23;20008;-83
2023/12/30 00:16:53;;;;;;;3.05;1.52;;;;;;;;;;6218205;23;20014;-82
2023/12/30 00:19:42;;;;;;;3.80;1.52;;;;;;;;;;6218726;23;20008;-80
2023/12/30 00:22:27;;;;;;;2.10;1.85;;;;;;;;;;6218127;23;19999;-81
2023/12/30 00:25:13;;;;;;;3.53;1.65;;;;;;;;;;6218317;23;20006;-81
2023/12/30 00:27:58;;;;;;;4.30;1.98;;;;;;;;;;6216399;23;20003;-81
2023/12/30 00:30:43;;;;;;;4.40;1.67;;;;;;;;;;6218166;23;20066;-81
2023/12/30 00:33:28;;;;;;;3.58;2.08;;;;;;;;;;6218435;23;19992;-81
2023/12/30 00:36:13;;;;;;;3.92;1.65;;;;;;;;;;6218327;23;20329;-80
2023/12/30 00:38:59;;;;;;;5.82;1.75;;;;;;;;;;6218570;23;20314;-81
2023/12/30 00:41:44;;;;;;;2.92;2.10;;;;;;;;;;6218046;23;20004;-80
2023/12/30 00:44:29;;;;;;;2.05;1.80;;;;;;;;;;6218752;23;19996;-80
2023/12/30 00:47:15;;;;;;;3.15;1.65;;;;;;;;;;6218284;23;20008;-80
2023/12/30 00:50:00;;;;;;;4.03;1.92;;;;;;;;;;6218193;23;20004;-80
2023/12/30 00:52:45;;;;;;;3.50;1.90;;;;;;;;;;6217438;23;20057;-80
2023/12/30 00:55:30;;;;;;;4.65;1.60;;;;;;;;;;6217800;23;20004;-80
2023/12/30 00:58:15;;;;;;;3.00;1.90;;;;;;;;;;6217984;23;20329;-80
2023/12/30 01:01:00;;;;;;;2.40;1.52;;;;;;;;;;6217715;23;20003;-85
2023/12/30 01:03:46;;;;;;;3.53;1.80;;;;;;;;;;6217082;23;20038;-83
2023/12/30 01:06:31;;;;;;;6.13;2.05;;;;;;;;;;6217581;23;20039;-83
2023/12/30 01:09:16;;;;;;;3.40;2.15;;;;;;;;;;6217511;23;20004;-82
2023/12/30 01:12:02;;;;;;;4.07;1.77;;;;;;;;;;6217465;23;20004;-82
2023/12/30 01:14:47;;;;;;;2.53;1.80;;;;;;;;;;6216951;23;20020;-82
2023/12/30 01:17:33;;;;;;;4.32;1.85;;;;;;;;;;6237921;23;20054;-82
2023/12/30 01:20:19;;;;;;;2.90;2.20;;;;;;;;;;6218135;23;20074;-82
2023/12/30 01:23:06;;;;;;;2.70;1.77;;;;;;;;;;6218253;23;20000;-82
2023/12/30 01:25:51;;;;;;;4.50;1.92;;;;;;;;;;6218328;23;19996;-83
2023/12/30 01:28:36;;;;;;;3.38;2.22;;;;;;;;;;6218802;23;20000;-82
2023/12/30 01:31:22;;;;;;;2.53;1.50;;;;;;;;;;6218599;23;20084;-82
2023/12/30 01:34:07;;;;;;;3.80;1.52;;;;;;;;;;6218154;23;20024;-81
2023/12/30 01:36:54;;;;;;;4.43;1.75;;;;;;;;;;6217523;23;20045;-81
2023/12/30 01:39:39;;;;;;;3.13;1.40;;;;;;;;;;6217880;23;20337;-81
2023/12/30 01:42:24;;;;;;;3.85;2.00;;;;;;;;;;6218650;23;20306;-82
2023/12/30 01:45:09;;;;;;;1.80;1.52;;;;;;;;;;6217893;23;20510;-81
2023/12/30 01:47:55;;;;;;;3.72;1.83;;;;;;;;;;6217813;23;20439;-82
2023/12/30 01:50:40;;;;;;;2.72;1.75;;;;;;;;;;6218259;23;20336;-81
2023/12/30 01:53:26;;;;;;;4.35;1.65;;;;;;;;;;6218051;23;20031;-81
2023/12/30 01:56:12;;;;;;;4.82;1.83;;;;;;;;;;6217665;23;19996;-81
2023/12/30 01:58:58;;;;;;;2.58;1.70;;;;;;;;;;6218495;23;20314;-81
2023/12/30 02:01:47;;;;;;;3.28;1.52;;;;;;;;;;6218205;23;20007;-81
2023/12/30 02:04:32;;;;;;;5.40;1.90;;;;;;;;;;6217823;23;20012;-81
2023/12/30 02:07:17;;;;;;;3.35;1.80;;;;;;;;;;6218091;23;20117;-81
2023/12/30 02:10:03;;;;;;;4.20;2.25;;;;;;;;;;6217848;22;20135;-80
2023/12/30 02:12:48;;;;;;;2.38;1.98;;;;;;;;;;6196603;23;20000;-80
2023/12/30 02:15:35;;;;;;;4.10;2.22;;;;;;;;;;6217863;23;20012;-83
2023/12/30 02:18:23;;;;;;;3.47;2.08;;;;;;;;;;6217576;23;20043;-83
2023/12/30 02:21:08;;;;;;;3.47;1.70;;;;;;;;;;6217602;23;20070;-82
2023/12/30 02:23:53;;;;;;;4.20;2.20;;;;;;;;;;6217518;23;20010;-83
2023/12/30 02:26:39;;;;;;;4.85;2.10;;;;;;;;;;6217851;23;20007;-82
2023/12/30 02:29:25;;;;;;;3.97;1.90;;;;;;;;;;6217981;23;19996;-85
2023/12/30 02:32:10;;;;;;;4.13;1.95;;;;;;;;;;6217335;23;20004;-81
2023/12/30 02:34:55;;;;;;;3.58;1.98;;;;;;;;;;6217778;23;20058;-83
2023/12/30 02:37:40;;;;;;;3.10;1.98;;;;;;;;;;6217536;23;20500;-82
2023/12/30 02:40:26;;;;;;;4.72;2.00;;;;;;;;;;6217967;23;19996;-82
2023/12/30 02:43:11;;;;;;;4.20;2.13;;;;;;;;;;6218022;23;20413;-82
2023/12/30 02:45:56;;;;;;;3.85;2.28;;;;;;;;;;6218189;23;20023;-82
2023/12/30 02:48:41;;;;;;;2.90;1.85;;;;;;;;;;6219443;23;20076;-81
2023/12/30 02:51:27;;;;;;;2.67;1.92;;;;;;;;;;6219492;23;20016;-80
2023/12/30 02:54:12;;;;;;;4.53;2.03;;;;;;;;;;6219212;23;19996;-81
2023/12/30 02:56:57;;;;;;;2.75;1.73;;;;;;;;;;6219892;23;19999;-80
2023/12/30 02:59:42;;;;;;;4.10;1.73;;;;;;;;;;6219812;23;20000;-81
2023/12/30 03:02:28;;;;;;;2.50;1.98;;;;;;;;;;6219628;23;20039;-81
2023/12/30 03:05:13;;;;;;;4.25;1.90;;;;;;;;;;6219258;23;20000;-81
2023/12/30 03:07:58;;;;;;;2.10;1.60;;;;;;;;;;6219482;23;20007;-81
2023/12/30 03:10:43;;;;;;;6.20;2.22;;;;;;;;;;6219446;23;20000;-81
2023/12/30 03:13:29;;;;;;;3.10;1.67;;;;;;;;;;6219141;23;19996;-81
2023/12/30 03:16:14;;;;;;;4.32;2.22;;;;;;;;;;6219209;23;20023;-81
2023/12/30 03:19:00;;;;;;;3.33;2.10;;;;;;;;;;6219492;23;20012;-81
2023/12/30 03:21:45;;;;;;;3.53;2.22;;;;;;;;;;6219493;23;20066;-81
2023/12/30 03:24:30;;;;;;;3.60;1.88;;;;;;;;;;6219031;23;20055;-81
2023/12/30 03:27:15;;;;;;;3.67;1.70;;;;;;;;;;6219103;23;19996;-80
2023/12/30 03:30:01;;;;;;;3.83;2.10;;;;;;;;;;6219288;23;20008;-83
2023/12/30 03:32:46;;;;;;;3.90;1.92;;;;;;;;;;6239696;23;20027;-81
2023/12/30 03:35:33;;;;;;;3.80;1.88;;;;;;;;;;6218744;23;20006;-83
2023/12/30 03:38:18;;;;;;;4.65;2.10;;;;;;;;;;6218702;23;20039;-82
2023/12/30 03:41:03;;;;;;;3.15;1.77;;;;;;;;;;6218791;23;20000;-81
2023/12/30 03:43:49;;;;;;;2.50;1.70;;;;;;;;;;6197734;23;20023;-83
2023/12/30 03:46:34;;;;;;;2.83;1.90;;;;;;;;;;6219042;23;20015;-82
2023/12/30 03:49:19;;;;;;;4.35;1.98;;;;;;;;;;6218955;23;19996;-81
2023/12/30 03:52:05;;;;;;;1.90;1.42;;;;;;;;;;6219303;23;20007;-81
2023/12/30 03:54:51;;;;;;;2.80;1.65;;;;;;;;;;6219076;23;19996;-81
2023/12/30 03:57:39;;;;;;;3.30;1.80;;;;;;;;;;6219330;23;20046;-82
2023/12/30 04:00:24;;;;;;;2.40;1.52;;;;;;;;;;6219564;23;20050;-82
2023/12/30 04:03:09;;;;;;;3.65;1.95;;;;;;;;;;6218469;23;20136;-81
2023/12/30 04:05:55;;;;;;;2.53;1.83;;;;;;;;;;6219218;23;20003;-81
2023/12/30 04:08:40;;;;;;;4.07;1.85;;;;;;;;;;6218715;23;20000;-81
2023/12/30 04:11:25;;;;;;;3.38;1.70;;;;;;;;;;6218889;23;20006;-81
2023/12/30 04:14:11;;;;;;;3.45;1.90;;;;;;;;;;6218868;23;20008;-80
2023/12/30 04:16:56;;;;;;;2.72;1.77;;;;;;;;;;6219037;23;20339;-81
2023/12/30 04:19:41;;;;;;;6.07;2.10;;;;;;;;;;6218456;23;19996;-80
2023/12/30 04:22:28;;;;;;;3.50;1.90;;;;;;;;;;6218630;23;20007;-81
2023/12/30 04:25:13;;;;;;;3.65;1.58;;;;;;;;;;6218314;23;20356;-80
2023/12/30 04:27:59;;;;;;;4.85;2.08;;;;;;;;;;6218637;23;19997;-81
2023/12/30 04:30:47;;;;;;;5.03;1.92;;;;;;;;;;6219222;23;20051;-81
2023/12/30 04:33:32;;;;;;;5.03;3.00;;;;;;;;;;6218979;23;20107;-81
2023/12/30 04:36:17;;;;;;;4.38;2.30;;;;;;;;;;6239755;23;20004;-79
2023/12/30 04:39:03;;;;;;;8.63;3.47;;;;;;;;;;6218312;23;20016;-80
2023/12/30 04:41:48;;;;;;;6.32;2.30;;;;;;;;;;6218081;23;20066;-81
2023/12/30 04:44:34;;;;;;;7.05;2.97;;;;;;;;;;6218710;23;20455;-83
2023/12/30 04:47:19;;;;;;;7.25;2.13;;;;;;;;;;6218669;23;20000;-82
2023/12/30 04:50:04;;;;;;;2.70;1.67;;;;;;;;;;6217808;23;20110;-82
2023/12/30 04:52:49;;;;;;;4.53;2.00;;;;;;;;;;6217900;23;20087;-83
2023/12/30 04:55:36;;;;;;;4.88;1.63;;;;;;;;;;6239195;23;20006;-83
2023/12/30 04:58:21;;;;;;;1.95;1.50;;;;;;;;;;6218500;23;20043;-83
2023/12/30 05:01:08;;;;;;;3.50;1.83;;;;;;;;;;6218822;23;20030;-83
2023/12/30 05:03:53;;;;;;;2.75;1.50;;;;;;;;;;6218145;23;20095;-82
2023/12/30 05:06:38;;;;;;;2.67;1.42;;;;;;;;;;6219358;23;20008;-83
2023/12/30 05:09:24;;;;;;;2.70;1.42;;;;;;;;;;6218251;23;20011;-82
2023/12/30 05:12:09;;;;;;;3.35;1.30;;;;;;;;;;6218119;23;20001;-81
2023/12/30 05:14:54;;;;;;;2.03;1.48;;;;;;;;;;6219090;23;20019;-81
2023/12/30 05:17:40;;;;;;;6.70;1.80;;;;;;;;;;6217310;23;20006;-81
2023/12/30 05:20:25;;;;;;;4.10;1.30;;;;;;;;;;6218450;23;20007;-82
2023/12/30 05:23:10;;;;;;;2.75;1.50;;;;;;;;;;6217900;23;20000;-82
2023/12/30 05:25:56;;;;;;;3.75;1.83;;;;;;;;;;6218302;23;19992;-81
2023/12/30 05:28:41;;;;;;;1.63;1.10;;;;;;;;;;6218607;23;20004;-80
2023/12/30 05:31:26;;;;;;;2.47;1.50;;;;;;;;;;6218649;23;20000;-80
2023/12/30 05:34:12;;;;;;;5.05;1.80;;;;;;;;;;6218254;23;20035;-81
2023/12/30 05:36:57;;;;;;;5.15;2.35;;;;;;;;;;6197750;23;19996;-80
2023/12/30 05:39:42;;;;;;;2.60;1.60;;;;;;;;;;6218455;23;20031;-80
2023/12/30 05:42:28;;;;;;;4.53;1.83;;;;;;;;;;6218701;23;20194;-80
2023/12/30 05:45:13;;;;;;;4.70;1.88;;;;;;;;;;6218851;23;20506;-80
2023/12/30 05:47:58;;;;;;;3.70;1.50;;;;;;;;;;6218365;23;20445;-80
2023/12/30 05:50:43;;;;;;;4.75;1.83;;;;;;;;;;6218122;23;19996;-80
2023/12/30 05:53:28;;;;;;;2.88;1.00;;;;;;;;;;6217910;23;20038;-80
2023/12/30 05:56:23;;;;;;;1.77;1.05;;;;;;;;;;6218293;23;20079;-80
2023/12/30 05:59:08;;;;;;;4.82;1.88;;;;;;;;;;6217957;23;20000;-81
2023/12/30 06:01:54;;;;;;;4.78;1.25;;;;;;;;;;6218018;23;20004;-81
2023/12/30 06:04:40;;;;;;;0.98;0.98;;;;;;;;;;6217868;23;20042;-82
2023/12/30 06:07:25;;;;;;;1.77;1.13;;;;;;;;;;6217867;23;20315;-82
2023/12/30 06:10:10;;;;;;;2.55;1.15;;;;;;;;;;6217129;22;20004;-83
2023/12/30 06:12:55;;;;;;;5.55;1.83;;;;;;;;;;6218031;23;19996;-84
2023/12/30 06:15:41;;;;;;;3.38;1.67;;;;;;;;;;6217944;23;20024;-83
2023/12/30 06:18:30;;;;;;;4.97;1.30;;;;;;;;;;6217987;23;20011;-83
2023/12/30 06:21:15;;;;;;;0.77;0.77;;;;;;;;;;6218151;23;20004;-81
2023/12/30 06:24:01;;;;;;;3.25;1.30;;;;;;;;;;6219802;23;19996;-82
2023/12/30 06:26:46;;;;;;;1.77;1.30;;;;;;;;;;6219989;23;20004;-82
2023/12/30 06:29:34;;;;;;;2.08;1.10;;;;;;;;;;6220162;23;20078;-81
2023/12/30 06:32:19;;;;;;;1.63;0.98;;;;;;;;;;6219735;23;20417;-81
2023/12/30 06:35:04;;;;;;;2.35;1.25;;;;;;;;;;6238849;23;20006;-82
2023/12/30 06:37:50;;;;;;;2.00;1.17;;;;;;;;;;6218769;23;19996;-82
2023/12/30 06:40:35;;;;;;;1.75;1.20;;;;;;;;;;6219966;23;20008;-82
2023/12/30 06:43:20;;;;;;;1.58;0.93;;;;;;;;;;6220438;23;20000;-81
2023/12/30 06:46:05;;;;;;;2.17;1.15;;;;;;;;;;6219933;23;20003;-82
2023/12/30 06:48:51;;;;;;;1.98;1.33;;;;;;;;;;6220272;23;20023;-82
2023/12/30 06:51:36;;;;;;;3.30;1.40;;;;;;;;;;6220632;23;20028;-82
2023/12/30 06:54:22;;;;;;;2.17;1.42;;;;;;;;;;6219846;23;20000;-81
2023/12/30 06:57:07;;;;;;;1.70;1.35;;;;;;;;;;6219874;23;20027;-81
2023/12/30 06:59:53;;;;;;;5.13;1.98;;;;;;;;;;6219770;23;20078;-81
2023/12/30 07:02:38;;;;;;;5.45;2.05;;;;;;;;;;6219948;23;19996;-81
2023/12/30 07:05:23;;;;;;;6.10;3.50;;;;;;;;;;6219483;23;20004;-81
2023/12/30 07:08:08;;;;;;;5.57;2.03;;;;;;;;;;6219108;23;20027;-81
2023/12/30 07:10:54;;;;;;;3.42;2.10;;;;;;;;;;6219342;23;20000;-80
2023/12/30 07:13:43;;;;;;;3.63;1.33;;;;;;;;;;6220025;23;20000;-82
2023/12/30 07:16:28;;;;;;;2.50;1.30;;;;;;;;;;6219479;23;20000;-82
2023/12/30 07:19:16;;;;;;;2.35;1.65;;;;;;;;;;6219085;23;20126;-82
2023/12/30 07:22:01;;;;;;;2.03;1.10;;;;;;;;;;6219502;23;20086;-80
2023/12/30 07:24:46;;;;;;;6.32;1.23;;;;;;;;;;6218913;23;20004;-81
2023/12/30 07:27:32;;;;;;;3.35;1.63;;;;;;;;;;6227930;23;20008;-81
2023/12/30 07:30:17;;;;;;;2.08;1.50;;;;;;;;;;6229524;23;20011;-81
2023/12/30 07:33:02;;;;;;;5.07;1.50;;;;;;;;;;6230250;23;20056;-81
2023/12/30 07:35:48;;;;;;;2.47;1.45;;;;;;;;;;6230267;23;20012;-81
2023/12/30 07:38:33;;;;;;;3.03;1.55;;;;;;;;;;6230333;22;19992;-82
2023/12/30 07:41:18;;;;;;;2.80;1.63;;;;;;;;;;6242926;23;20365;-81
2023/12/30 07:44:03;;;;;;;3.28;1.63;;;;;;;;;;6226414;23;20069;-81
2023/12/30 07:46:49;;;;;;;3.97;1.42;;;;;;;;;;6221166;23;20435;-80
2023/12/30 07:49:34;;;;;;;4.30;1.58;;;;;;;;;;6219899;23;20008;-81
2023/12/30 07:52:20;;;;;;;1.92;1.20;;;;;;;;;;6219585;23;20008;-82
2023/12/30 07:55:05;;;;;;;3.58;1.30;;;;;;;;;;6219551;23;20433;-81
2023/12/30 07:57:51;;;;;;;4.25;1.70;;;;;;;;;;6219196;23;20000;-81
2023/12/30 08:00:36;;;;;;;3.63;1.23;;;;;;;;;;6219333;23;19999;-82
2023/12/30 08:03:21;;;;;;;4.68;1.40;;;;;;;;;;6219268;23;20003;-81
2023/12/30 08:06:07;;;;;;;2.00;1.10;;;;;;;;;;6218921;23;19997;-81
2023/12/30 08:08:53;;;;;;;2.42;1.20;;;;;;;;;;6219092;23;20011;-81
2023/12/30 08:11:38;;;;;;;4.72;1.50;;;;;;;;;;6219507;23;20067;-81
2023/12/30 08:14:23;;;;;;;3.30;1.48;;;;;;;;;;6218955;23;20101;-82
2023/12/30 08:17:09;;;;;;;6.88;2.35;;;;;;;;;;6219115;23;20000;-81
2023/12/30 08:19:54;;;;;;;3.13;1.95;;;;;;;;;;6218995;23;20007;-81
2023/12/30 08:22:39;;;;;;;3.53;1.63;;;;;;;;;;6218827;23;20000;-81
2023/12/30 08:25:24;;;;;;;3.90;1.88;;;;;;;;;;6218519;23;20000;-80
2023/12/30 08:28:10;;;;;;;6.78;2.92;;;;;;;;;;6219416;23;20016;-84
2023/12/30 08:30:56;;;;;;;4.88;1.80;;;;;;;;;;6219607;23;19996;-83
2023/12/30 08:33:42;;;;;;;7.10;2.33;;;;;;;;;;6220108;23;20050;-83
2023/12/30 08:36:28;;;;;;;4.35;2.13;;;;;;;;;;6219143;23;19996;-84
2023/12/30 08:39:13;;;;;;;6.13;1.85;;;;;;;;;;6219006;23;20000;-83
2023/12/30 08:41:58;;;;;;;3.60;1.38;;;;;;;;;;6219227;23;20007;-83
2023/12/30 08:44:44;;;;;;;3.38;1.65;;;;;;;;;;6218471;23;20000;-83
2023/12/30 08:47:31;;;;;;;4.30;1.90;;;;;;;;;;6218812;23;20007;-83
2023/12/30 08:50:17;;;;;;;3.90;1.50;;;;;;;;;;6219186;23;20075;-83
2023/12/30 08:53:02;;;;;;;5.22;1.35;;;;;;;;;;6219230;23;20024;-81
2023/12/30 08:55:47;;;;;;;3.10;1.73;;;;;;;;;;6219446;23;20000;-82
2023/12/30 08:58:32;;;;;;;3.63;1.73;;;;;;;;;;6219241;23;20012;-81
2023/12/30 09:01:18;;;;;;;4.30;1.83;;;;;;;;;;6218733;23;20079;-81
2023/12/30 09:04:03;;;;;;;2.83;1.50;;;;;;;;;;6219548;23;20007;-81
2023/12/30 09:06:48;;;;;;;3.38;1.52;;;;;;;;;;6218372;23;20000;-81
2023/12/30 09:09:36;;;;;;;3.28;1.70;;;;;;;;;;6238886;22;19996;-81
2023/12/30 09:12:25;;;;;;;2.97;1.60;;;;;;;;;;6218033;23;19996;-80
2023/12/30 09:15:10;;;;;;;3.20;1.45;;;;;;;;;;6196678;23;20027;-81
2023/12/30 09:17:57;;;;;;;4.57;1.42;;;;;;;;;;6217926;23;19992;-80
2023/12/30 09:20:43;;;;;;;2.67;1.30;;;;;;;;;;6217840;23;19996;-81
2023/12/30 09:23:28;;;;;;;1.20;1.10;;;;;;;;;;6218361;23;19996;-81
2023/12/30 09:26:15;;;;;;;3.10;1.38;;;;;;;;;;6217887;23;19999;-81
2023/12/30 09:29:00;;;;;;;2.38;1.15;;;;;;;;;;6218659;23;20008;-81
2023/12/30 09:31:46;;;;;;;1.50;1.23;;;;;;;;;;6217377;23;20329;-80
2023/12/30 09:34:31;;;;;;;1.92;1.65;;;;;;;;;;6218086;23;20014;-81
2023/12/30 09:37:18;;;;;;;1.50;1.30;;;;;;;;;;6218256;23;20048;-81
2023/12/30 09:40:04;;;;;;;2.33;1.15;;;;;;;;;;6217632;23;20000;-80
2023/12/30 09:42:50;;;;;;;2.75;1.25;;;;;;;;;;6218101;23;20007;-81
2023/12/30 09:45:38;;;;;;;2.40;1.20;;;;;;;;;;6218262;23;20072;-83
2023/12/30 09:48:38;;;;;;;2.85;1.50;;;;;;;;;;6218965;23;20472;-81
2023/12/30 09:51:40;;;;;;;2.97;1.42;;;;;;;;;;6117452;23;20004;-82
2023/12/30 09:54:27;;;;;;;4.43;1.38;;;;;;;;;;6097468;23;20486;-82
2023/12/30 09:57:14;;;;;;;1.58;0.90;;;;;;;;;;6119163;23;20009;-83
2023/12/30 09:59:59;;;;;;;2.00;1.20;;;;;;;;;;6167551;23;19996;-80
2023/12/30 10:02:44;;;;;;;1.27;1.02;;;;;;;;;;6220046;23;20300;-82
2023/12/30 10:05:29;;;;;;;3.88;1.20;;;;;;;;;;6219595;23;20003;-81
2023/12/30 10:08:15;;;;;;;2.40;1.10;;;;;;;;;;6217483;23;20003;-81
2023/12/30 10:11:00;;;;;;;3.78;0.95;;;;;;;;;;6219664;23;20007;-81
2023/12/30 10:13:45;;;;;;;3.22;1.20;;;;;;;;;;6219259;23;20237;-81
2023/12/30 10:16:30;;;;;;;4.45;1.45;;;;;;;;;;6219860;23;19997;-81
2023/12/30 10:19:16;;;;;;;3.30;1.23;;;;;;;;;;6241070;23;20333;-82
2023/12/30 10:22:02;;;;;;;1.83;1.33;;;;;;;;;;6219611;23;20030;-82
2023/12/30 10:24:47;;;;;;;3.95;2.00;;;;;;;;;;6219766;23;20039;-81
2023/12/30 10:27:32;;;;;;;2.63;1.20;;;;;;;;;;6219632;23;20004;-81
2023/12/30 10:30:20;;;;;;;2.00;1.33;;;;;;;;;;6219474;23;20088;-82
2023/12/30 10:33:09;;;;;;;1.85;0.95;;;;;;;;;;6218969;23;20031;-82
2023/12/30 10:35:55;;;;;;;3.03;1.08;;;;;;;;;;6218934;23;20054;-82
2023/12/30 10:38:40;;;;;;;1.42;0.85;;;;;;;;;;6219768;23;20429;-82
2023/12/30 10:41:26;;;;;;;2.05;0.90;;;;;;;;;;6219320;23;20004;-82
2023/12/30 10:44:11;;;;;;;3.25;1.05;;;;;;;;;;6219344;23;20007;-81
2023/12/30 10:46:57;;;;;;;0.85;0.70;;;;;;;;;;6219347;23;20000;-81
2023/12/30 10:49:49;;;;;;;3.05;1.05;;;;;;;;;;6218848;23;20008;-81
2023/12/30 10:52:35;;;;;;;1.75;1.10;;;;;;;;;;6216802;23;20000;-81
2023/12/30 10:55:21;;;;;;;2.10;1.05;;;;;;;;;;6219345;23;20010;-82
2023/12/30 10:58:13;;;;;;;5.43;1.25;;;;;;;;;;6218860;23;20084;-83
2023/12/30 11:01:00;;;;;;;2.78;1.00;;;;;;;;;;6217005;23;20003;-84
2023/12/30 11:03:45;;;;;;;1.25;0.90;;;;;;;;;;6218895;23;20091;-84
2023/12/30 11:06:41;;;;;;;1.52;0.90;;;;;;;;;;6218674;23;20038;-82
2023/12/30 11:09:27;;;;;;;2.10;1.00;;;;;;;;;;6218591;23;20058;-83
2023/12/30 11:12:13;;;;;;;2.60;0.80;;;;;;;;;;6218763;23;20070;-82
2023/12/30 11:15:00;;;;;;;1.80;0.95;;;;;;;;;;6218790;23;20038;-83
2023/12/30 11:17:46;;;;;;;4.93;2.03;;;;;;;;;;6218612;23;20466;-82
2023/12/30 11:20:32;;;;;;;3.08;1.30;;;;;;;;;;6219186;23;20704;-83
2023/12/30 11:23:19;;;;;;;2.35;0.95;;;;;;;;;;6219462;23;20011;-82
2023/12/30 11:26:05;;;;;;;2.53;0.85;;;;;;;;;;6219166;23;20066;-82
2023/12/30 11:28:50;;;;;;;1.65;1.00;;;;;;;;;;6219134;23;20089;-82
2023/12/30 11:31:36;;;;;;;1.20;1.00;;;;;;;;;;6219092;23;20333;-82
2023/12/30 11:34:21;;;;;;;3.90;1.17;;;;;;;;;;6218986;23;20310;-82
2023/12/30 11:37:07;;;;;;;1.00;0.80;;;;;;;;;;6218400;23;20008;-82
2023/12/30 11:39:55;;;;;;;2.47;0.98;;;;;;;;;;6219131;23;19997;-82
2023/12/30 11:42:41;;;;;;;1.15;0.80;;;;;;;;;;6218960;23;20004;-82
2023/12/30 11:45:26;;;;;;;3.05;1.70;;;;;;;;;;6218432;23;20011;-82
2023/12/30 11:48:12;;;;;;;1.98;1.23;;;;;;;;;;6218911;23;20010;-82
2023/12/30 11:50:57;;;;;;;4.25;1.23;;;;;;;;;;6217974;23;20063;-81
2023/12/30 11:53:42;;;;;;;1.73;0.75;;;;;;;;;;6218236;23;20046;-81
2023/12/30 11:56:27;;;;;;;0.70;0.70;;;;;;;;;;6218504;23;20004;-81
2023/12/30 11:59:13;;;;;;;2.33;0.90;;;;;;;;;;6219124;23;20055;-81
2023/12/30 12:02:08;;;;;;;1.55;0.93;;;;;;;;;;6219095;23;20000;-80
2023/12/30 12:04:53;;;;;;;3.03;0.90;;;;;;;;;;6219663;23;20412;-80
2023/12/30 12:07:38;;;;;;;0.70;0.60;;;;;;;;;;6240062;23;20035;-80
2023/12/30 12:10:23;;;;;;;2.50;0.70;;;;;;;;;;6219243;23;20003;-80
2023/12/30 12:13:12;;;;;;;1.70;0.63;;;;;;;;;;6217835;23;20003;-81
2023/12/30 12:15:57;;;;;;;1.13;0.75;;;;;;;;;;6218825;23;20091;-81
2023/12/30 12:18:42;;;;;;;1.33;0.75;;;;;;;;;;6218515;23;20000;-81
2023/12/30 12:21:27;;;;;;;2.78;1.00;;;;;;;;;;6218219;23;20502;-82
2023/12/30 12:24:13;;;;;;;2.05;1.42;;;;;;;;;;6218491;23;20425;-83
2023/12/30 12:26:58;;;;;;;1.00;0.90;;;;;;;;;;6218493;23;20076;-82
2023/12/30 12:29:44;;;;;;;1.42;0.85;;;;;;;;;;6217851;23;20218;-82
2023/12/30 12:32:29;;;;;;;1.90;0.82;;;;;;;;;;6217570;23;20285;-81
2023/12/30 12:35:14;;;;;;;1.58;0.73;;;;;;;;;;6216470;23;20000;-82
2023/12/30 12:38:00;;;;;;;2.15;0.85;;;;;;;;;;6218253;23;20008;-81
2023/12/30 12:40:45;;;;;;;2.05;0.95;;;;;;;;;;6218480;23;19999;-81
2023/12/30 12:43:30;;;;;;;2.05;0.90;;;;;;;;;;6218281;23;20000;-80
2023/12/30 12:46:15;;;;;;;1.70;1.00;;;;;;;;;;6218768;23;19996;-81
2023/12/30 12:49:01;;;;;;;4.40;1.20;;;;;;;;;;6218488;23;20011;-81
2023/12/30 12:51:47;;;;;;;2.80;1.00;;;;;;;;;;6218134;23;20000;-81
2023/12/30 12:54:32;;;;;;;1.35;0.73;;;;;;;;;;6218334;23;20323;-81
2023/12/30 12:57:17;;;;;;;1.48;0.80;;;;;;;;;;6218401;23;19993;-81
2023/12/30 13:00:08;;;;;;;1.52;0.82;;;;;;;;;;6218715;23;20008;-81
2023/12/30 13:02:53;;;;;;;4.53;1.70;;;;;;;;;;6218515;23;20010;-81
2023/12/30 13:05:38;;;;;;;6.10;1.27;;;;;;;;;;6218488;23;20333;-80
2023/12/30 13:08:24;;;;;;;2.95;1.02;;;;;;;;;;6218207;23;20011;-80
2023/12/30 13:11:09;;;;;;;1.50;0.90;;;;;;;;;;6217815;23;19996;-81
2023/12/30 13:13:54;;;;;;;1.83;1.00;;;;;;;;;;6218091;23;20019;-81
2023/12/30 13:16:40;;;;;;;0.80;0.70;;;;;;;;;;6218106;23;19995;-81
2023/12/30 13:19:25;;;;;;;2.22;0.88;;;;;;;;;;6218679;23;20084;-80
2023/12/30 13:22:10;;;;;;;2.30;1.00;;;;;;;;;;6217702;23;20003;-80
2023/12/30 13:24:56;;;;;;;2.05;0.70;;;;;;;;;;6218579;23;20102;-80
2023/12/30 13:27:41;;;;;;;2.63;1.13;;;;;;;;;;6218117;23;20372;-82
2023/12/30 13:30:27;;;;;;;4.22;2.25;;;;;;;;;;6218572;23;20000;-82
2023/12/30 13:33:16;;;;;;;2.20;0.70;;;;;;;;;;6217736;23;20008;-81
2023/12/30 13:36:07;;;;;;;0.90;0.73;;;;;;;;;;6196914;23;20000;-83
2023/12/30 13:38:59;;;;;;;0.73;0.73;;;;;;;;;;6217785;23;20014;-82
2023/12/30 13:41:44;;;;;;;3.15;0.93;;;;;;;;;;6217594;23;20056;-82
2023/12/30 13:44:35;;;;;;;1.70;1.17;;;;;;;;;;6214136;23;20083;-82
2023/12/30 13:50:31;;;;;;;1.23;0.90;;;;;;;;;;6217783;23;20022;-81
2023/12/30 13:53:16;;;;;;;2.05;1.13;;;;;;;;;;6217751;23;20058;-81
2023/12/30 13:59:09;;;;;;;1.73;0.90;;;;;;;;;;6206152;23;20387;-82
2023/12/30 14:01:56;;;;;;;1.90;1.00;;;;;;;;;;6215580;23;20071;-81
2023/12/30 14:04:42;;;;;;;3.17;1.63;;;;;;;;;;6213747;23;20106;-81
2023/12/30 14:07:28;;;;;;;2.85;1.23;;;;;;;;;;6217211;23;20038;-80
2023/12/30 14:10:18;;;;;;;1.63;1.00;;;;;;;;;;6214264;22;20000;-81
2023/12/30 14:13:03;;;;;;;3.15;1.58;;;;;;;;;;6215580;23;20004;-80
2023/12/30 14:15:49;;;;;;;2.00;1.30;;;;;;;;;;6215418;23;20536;-81
2023/12/30 14:18:35;;;;;;;3.95;1.35;;;;;;;;;;6216484;23;20050;-80
2023/12/30 14:21:20;;;;;;;2.08;0.90;;;;;;;;;;6215214;23;20342;-81
2023/12/30 14:24:05;;;;;;;1.92;0.93;;;;;;;;;;6202744;23;20013;-80
2023/12/30 14:26:51;;;;;;;1.90;1.00;;;;;;;;;;6215303;23;20014;-80
2023/12/30 14:29:36;;;;;;;2.50;1.10;;;;;;;;;;6216778;23;20006;-81
2023/12/30 14:32:23;;;;;;;1.30;1.10;;;;;;;;;;6197247;23;20040;-81
2023/12/30 14:35:09;;;;;;;2.95;1.30;;;;;;;;;;6217333;23;19999;-81
2023/12/30 14:37:54;;;;;;;1.38;1.13;;;;;;;;;;6218276;23;20086;-81
2023/12/30 14:40:39;;;;;;;2.60;1.30;;;;;;;;;;6218129;23;19996;-80
2023/12/30 14:43:25;;;;;;;1.52;1.00;;;;;;;;;;6218556;23;20071;-82
2023/12/30 14:46:11;;;;;;;1.65;1.17;;;;;;;;;;6219880;23;20066;-83
2023/12/30 14:48:58;;;;;;;3.50;1.45;;;;;;;;;;6219397;23;20004;-80
2023/12/30 14:51:43;;;;;;;1.77;1.13;;;;;;;;;;6219509;23;20000;-83
2023/12/30 14:54:28;;;;;;;4.20;1.30;;;;;;;;;;6219431;23;20315;-82
2023/12/30 14:57:13;;;;;;;1.80;1.25;;;;;;;;;;6219420;23;20008;-81
2023/12/30 14:59:58;;;;;;;6.00;1.92;;;;;;;;;;6219663;23;20010;-81
2023/12/30 15:02:44;;;;;;;2.25;1.63;;;;;;;;;;6219258;23;20000;-80
2023/12/30 15:05:29;;;;;;;4.68;2.38;;;;;;;;;;6219228;23;20400;-81
2023/12/30 15:08:15;;;;;;;2.13;1.27;;;;;;;;;;6219512;23;20003;-82
2023/12/30 15:11:00;;;;;;;2.60;1.60;;;;;;;;;;6219366;23;20011;-81
2023/12/30 15:13:46;;;;;;;6.47;3.35;;;;;;;;;;6217192;23;20444;-81
2023/12/30 15:16:31;;;;;;;3.83;1.60;;;;;;;;;;6219415;23;20035;-81
2023/12/30 15:19:17;;;;;;;2.13;1.23;;;;;;;;;;6219028;23;20038;-80
2023/12/30 15:22:03;;;;;;;1.90;1.25;;;;;;;;;;6217281;23;20088;-80
2023/12/30 15:24:49;;;;;;;1.63;0.90;;;;;;;;;;6219143;23;20008;-81
2023/12/30 15:27:35;;;;;;;3.35;1.17;;;;;;;;;;6219486;23;20079;-81
2023/12/30 15:30:22;;;;;;;6.22;2.03;;;;;;;;;;6218945;23;20073;-81
2023/12/30 15:33:07;;;;;;;2.08;1.38;;;;;;;;;;6216219;23;20031;-81
2023/12/30 15:35:52;;;;;;;3.22;1.50;;;;;;;;;;6219340;23;20080;-81
2023/12/30 15:38:38;;;;;;;3.03;1.45;;;;;;;;;;6219411;23;20071;-81
2023/12/30 15:41:23;;;;;;;6.65;1.20;;;;;;;;;;6219440;23;20460;-81
2023/12/30 15:44:08;;;;;;;3.25;1.40;;;;;;;;;;6218947;23;20000;-81
2023/12/30 15:46:54;;;;;;;3.00;1.10;;;;;;;;;;6219497;23;20008;-80
2023/12/30 15:49:39;;;;;;;9.75;5.30;;;;;;;;;;6198561;23;19996;-80
2023/12/30 15:52:25;;;;;;;4.47;2.42;;;;;;;;;;6215425;23;20003;-77
2023/12/30 15:55:11;;;;;;;2.97;1.83;;;;;;;;;;6231269;23;20004;-82
2023/12/30 15:57:55;;;;;;;2.42;1.48;;;;;;;;;;6267713;23;20006;-84
2023/12/30 16:00:39;;;;;;;2.80;1.55;;;;;;;;;;6270669;22;20007;-83
2023/12/30 16:03:23;;;;;;;2.60;1.35;;;;;;;;;;6248787;22;20050;-82
2023/12/30 16:06:08;;;;;;;4.70;1.52;;;;;;;;;;6263275;22;20061;-83
2023/12/30 16:08:54;;;;;;;2.55;1.52;;;;;;;;;;6217605;23;20115;-82
2023/12/30 16:11:39;;;;;;;5.70;1.48;;;;;;;;;;6220163;23;20000;-83
2023/12/30 16:14:24;;;;;;;3.28;1.33;;;;;;;;;;6220031;23;20012;-83
2023/12/30 16:17:09;;;;;;;5.97;1.23;;;;;;;;;;6219249;23;19996;-82
2023/12/30 16:19:55;;;;;;;3.85;2.20;;;;;;;;;;6216811;23;20003;-82
2023/12/30 16:22:40;;;;;;;8.13;2.33;;;;;;;;;;6219158;23;20027;-84
2023/12/30 16:25:25;;;;;;;6.07;3.50;;;;;;;;;;6216291;23;20078;-81
2023/12/30 16:28:11;;;;;;;2.92;1.55;;;;;;;;;;6218327;23;20015;-81
2023/12/30 16:30:56;;;;;;;4.68;2.25;;;;;;;;;;6218238;23;20054;-82
2023/12/30 16:33:41;;;;;;;2.45;1.33;;;;;;;;;;6216527;23;20000;-82
2023/12/30 16:36:26;;;;;;;4.78;1.65;;;;;;;;;;6218543;23;19996;-81
2023/12/30 16:39:12;;;;;;;9.15;2.13;;;;;;;;;;6217125;23;20031;-81